Time;durP1;ratioP1;P1;durP2;ratioP2;P2;SDS_P1;SDS_P2;PMS_P1;PMS_P2;Temp;Humidity;BMP_temperature;BMP_pressure;BME280_temperature;BME280_humidity;BME280_pressure;Samples;Min_cycle;Max_cycle;Signal;HPM_P1;HPM_P2
2023/03/10 00:00:27;;;;;;;2.83;1.00;;;7.10;99.90;;;;;;5113683;28;20694;-69
2023/03/10 00:03:01;;;;;;;0.95;0.90;;;7.00;99.90;;;;;;5131584;28;20050;-66
2023/03/10 00:05:38;;;;;;;1.52;1.42;;;6.80;99.90;;;;;;5106064;28;20042;-69
2023/03/10 00:08:10;;;;;;;3.45;1.45;;;6.80;99.90;;;;;;5124083;28;20054;-67
2023/03/10 00:10:41;;;;;;;1.90;1.40;;;6.70;99.90;;;;;;5123556;28;20490;-68
2023/03/10 00:13:15;;;;;;;3.28;1.38;;;6.70;99.90;;;;;;5098940;28;20058;-67
2023/03/10 00:15:50;;;;;;;3.45;1.45;;;6.60;99.90;;;;;;5116598;28;20491;-68
2023/03/10 00:18:22;;;;;;;4.00;2.08;;;6.30;99.90;;;;;;5114566;28;20042;-68
2023/03/10 00:20:55;;;;;;;2.58;1.70;;;6.20;99.90;;;;;;5114873;28;20034;-68
2023/03/10 00:23:26;;;;;;;4.70;1.90;;;6.00;99.90;;;;;;5132050;28;20037;-67
2023/03/10 00:26:05;;;;;;;3.53;1.80;;;6.00;99.90;;;;;;5115012;28;20110;-66
2023/03/10 00:28:37;;;;;;;2.25;1.58;;;5.90;99.90;;;;;;5112069;28;20035;-69
2023/03/10 00:31:17;;;;;;;3.17;1.63;;;5.80;99.90;;;;;;5086910;28;20038;-69
2023/03/10 00:33:55;;;;;;;2.53;1.60;;;5.60;99.90;;;;;;5115783;28;20022;-69
2023/03/10 00:36:31;;;;;;;1.90;1.65;;;5.50;99.90;;;;;;5096462;28;20057;-69
2023/03/10 00:39:04;;;;;;;1.80;1.58;;;5.40;99.90;;;;;;5122110;28;20047;-69
2023/03/10 00:41:38;;;;;;;4.07;1.75;;;5.40;99.90;;;;;;5117223;28;20046;-70
2023/03/10 00:44:10;;;;;;;2.55;1.60;;;5.40;99.90;;;;;;5115876;28;20240;-69
2023/03/10 00:46:42;;;;;;;3.60;1.58;;;5.30;99.90;;;;;;5093286;29;20043;-71
2023/03/10 00:49:18;;;;;;;2.05;1.38;;;5.20;99.90;;;;;;5120052;28;20553;-65
2023/03/10 00:51:49;;;;;;;4.95;2.05;;;5.00;99.90;;;;;;5105578;28;20034;-69
2023/03/10 00:54:25;;;;;;;2.58;1.90;;;4.90;99.90;;;;;;5109294;28;20030;-70
2023/03/10 00:56:59;;;;;;;2.35;1.52;;;4.80;99.90;;;;;;5141112;28;20042;-68
2023/03/10 00:59:33;;;;;;;3.15;1.83;;;4.70;99.90;;;;;;5126377;28;20049;-69
2023/03/10 01:02:05;;;;;;;4.53;1.92;;;4.70;99.90;;;;;;5189041;23;20568;-69
2023/03/10 01:04:39;;;;;;;4.22;2.13;;;4.60;99.90;;;;;;5120868;28;20057;-70
2023/03/10 01:07:10;;;;;;;3.65;2.35;;;4.60;99.90;;;;;;5133179;28;20045;-69
2023/03/10 01:09:44;;;;;;;2.40;1.85;;;4.50;99.90;;;;;;5128400;28;20046;-69
2023/03/10 01:12:16;;;;;;;5.10;2.22;;;4.50;99.90;;;;;;5151054;28;20026;-69
2023/03/10 01:14:50;;;;;;;32.85;18.35;;;4.40;99.90;;;;;;5150961;28;20041;-69
2023/03/10 01:17:22;;;;;;;20.92;10.30;;;4.40;99.90;;;;;;5114496;28;20055;-69
2023/03/10 01:19:57;;;;;;;13.18;6.55;;;4.30;99.90;;;;;;5117788;28;20655;-69
2023/03/10 01:22:31;;;;;;;7.60;3.75;;;4.20;99.90;;;;;;5099809;28;20043;-68
2023/03/10 01:25:06;;;;;;;9.73;4.50;;;4.20;99.90;;;;;;5118777;28;20036;-71
2023/03/10 01:27:37;;;;;;;3.05;2.15;;;4.20;99.90;;;;;;5114214;28;20545;-69
2023/03/10 01:30:10;;;;;;;5.03;2.67;;;4.20;99.90;;;;;;5130666;28;20027;-69
2023/03/10 01:32:42;;;;;;;3.40;1.65;;;4.20;99.90;;;;;;5113662;28;20149;-68
2023/03/10 01:35:16;;;;;;;4.38;1.90;;;4.10;99.90;;;;;;5116185;28;20053;-69
2023/03/10 01:37:48;;;;;;;2.33;1.88;;;4.00;99.90;;;;;;5119426;28;20046;-69
2023/03/10 01:40:21;;;;;;;2.10;1.80;;;4.00;99.90;;;;;;5129761;28;20077;-70
2023/03/10 01:43:21;;;;;;;5.05;2.03;;;4.00;99.90;;;;;;5117547;28;20570;-69
2023/03/10 01:45:55;;;;;;;5.63;2.25;;;4.00;99.90;;;;;;5131160;28;20331;-70
2023/03/10 01:48:37;;;;;;;3.08;2.10;;;3.90;99.90;;;;;;5131523;28;20354;-70
2023/03/10 01:51:08;;;;;;;3.38;2.00;;;3.80;99.90;;;;;;5119220;28;20030;-70
2023/03/10 01:53:43;;;;;;;3.90;2.03;;;3.80;99.90;;;;;;5116841;28;20056;-70
2023/03/10 01:56:14;;;;;;;3.83;2.35;;;3.70;99.90;;;;;;5131198;28;20456;-69
2023/03/10 01:58:50;;;;;;;2.65;1.92;;;3.70;99.90;;;;;;5098074;28;20062;-69
2023/03/10 02:01:22;;;;;;;5.95;2.38;;;3.60;99.90;;;;;;5128802;28;20060;-70
2023/03/10 02:04:00;;;;;;;6.85;2.10;;;3.50;99.90;;;;;;5080458;28;20039;-70
2023/03/10 02:06:36;;;;;;;2.47;2.05;;;3.50;99.90;;;;;;5068210;28;20046;-69
2023/03/10 02:09:12;;;;;;;2.15;1.90;;;3.40;99.90;;;;;;5081514;28;20042;-70
2023/03/10 02:11:46;;;;;;;3.08;2.10;;;3.40;99.90;;;;;;5113344;28;20398;-70
2023/03/10 02:14:26;;;;;;;2.72;2.22;;;3.40;99.90;;;;;;5117511;28;20301;-69
2023/03/10 02:17:06;;;;;;;2.88;1.90;;;3.40;99.90;;;;;;5084183;28;20049;-70
2023/03/10 02:19:58;;;;;;;2.72;1.48;;;3.40;99.90;;;;;;5094068;28;20141;-70
2023/03/10 02:22:34;;;;;;;2.58;1.55;;;3.30;99.90;;;;;;5081266;28;20053;-70
2023/03/10 02:25:54;;;;;;;4.72;1.83;;;3.30;99.90;;;;;;5099183;28;20053;-71
2023/03/10 02:28:27;;;;;;;2.90;1.58;;;3.30;99.90;;;;;;5048223;29;20052;-70
2023/03/10 02:31:00;;;;;;;7.88;1.90;;;3.30;99.90;;;;;;5036076;29;20047;-70
2023/03/10 02:33:33;;;;;;;5.50;2.00;;;3.20;99.90;;;;;;5045588;29;20032;-70
2023/03/10 02:36:27;;;;;;;5.90;2.35;;;3.20;99.90;;;;;;5067568;29;20062;-71
2023/03/10 02:39:00;;;;;;;2.42;2.17;;;3.10;99.90;;;;;;5046883;29;20043;-70
2023/03/10 02:41:36;;;;;;;3.95;2.40;;;3.00;99.90;;;;;;5035915;29;20040;-70
2023/03/10 02:44:17;;;;;;;4.57;2.00;;;2.90;99.90;;;;;;5052543;29;20613;-70
2023/03/10 02:46:50;;;;;;;4.22;1.98;;;2.80;99.90;;;;;;5066614;29;20065;-70
2023/03/10 02:49:23;;;;;;;5.90;2.33;;;2.80;99.90;;;;;;5051736;29;20063;-70
2023/03/10 02:52:02;;;;;;;2.70;2.15;;;2.80;99.90;;;;;;5023448;29;20036;-69
2023/03/10 02:54:39;;;;;;;7.13;2.10;;;2.80;99.90;;;;;;5062750;29;20027;-70
2023/03/10 02:57:12;;;;;;;3.63;1.98;;;2.80;99.90;;;;;;5032694;29;20248;-70
2023/03/10 02:59:45;;;;;;;3.28;2.08;;;2.70;99.90;;;;;;5045545;29;20059;-69
2023/03/10 03:02:16;;;;;;;4.82;2.42;;;2.70;99.90;;;;;;5078234;28;20039;-69
2023/03/10 03:04:48;;;;;;;3.00;2.17;;;2.70;99.90;;;;;;5103428;28;20163;-70
2023/03/10 03:07:22;;;;;;;4.28;2.40;;;2.70;99.90;;;;;;5113978;28;20031;-71
2023/03/10 03:09:53;;;;;;;3.08;1.60;;;2.80;99.90;;;;;;5112809;28;20030;-71
2023/03/10 03:12:28;;;;;;;3.75;1.95;;;2.80;99.90;;;;;;5112820;28;20046;-70
2023/03/10 03:15:07;;;;;;;;;;;2.80;99.90;;;;;;5113173;28;20050;-71
2023/03/10 03:17:38;;;;;;;3.70;2.10;;;2.90;99.90;;;;;;5098238;28;19918;-70
2023/03/10 03:20:12;;;;;;;7.72;2.20;;;2.80;99.90;;;;;;5112095;28;20030;-70
2023/03/10 03:22:47;;;;;;;4.47;1.38;;;2.80;99.90;;;;;;5110242;28;20038;-70
2023/03/10 03:25:22;;;;;;;4.13;1.67;;;2.80;99.90;;;;;;5102127;28;20038;-71
2023/03/10 03:27:55;;;;;;;3.15;1.88;;;2.80;99.90;;;;;;5096775;29;20051;-70
2023/03/10 03:30:30;;;;;;;4.05;2.00;;;2.90;99.90;;;;;;5096397;29;20039;-70
2023/03/10 03:33:06;;;;;;;4.30;1.70;;;2.80;99.90;;;;;;5081501;29;20584;-71
2023/03/10 03:35:41;;;;;;;3.65;2.03;;;2.70;99.90;;;;;;5082133;29;20049;-71
2023/03/10 03:38:13;;;;;;;3.72;1.40;;;2.60;99.90;;;;;;5081904;29;20613;-69
2023/03/10 03:40:44;;;;;;;5.50;2.20;;;2.60;99.90;;;;;;5082265;29;20062;-70
2023/03/10 03:43:16;;;;;;;3.97;2.08;;;2.60;99.90;;;;;;5073333;28;20043;-69
2023/03/10 03:45:50;;;;;;;5.18;2.28;;;2.60;99.90;;;;;;5115738;28;20465;-69
2023/03/10 03:48:26;;;;;;;2.30;1.77;;;2.60;99.90;;;;;;5116517;28;20346;-72
2023/03/10 03:51:01;;;;;;;4.13;2.25;;;2.60;99.90;;;;;;5122509;28;20128;-70
2023/03/10 03:53:35;;;;;;;;;;;2.50;99.90;;;;;;5106756;28;20043;-71
2023/03/10 03:56:09;;;;;;;3.15;2.08;;;2.60;99.90;;;;;;5090723;28;19922;-71
2023/03/10 03:58:40;;;;;;;2.70;1.65;;;2.60;99.90;;;;;;5086368;29;20035;-71
2023/03/10 04:01:18;;;;;;;4.28;1.98;;;2.60;99.90;;;;;;5097254;28;20035;-69
2023/03/10 04:03:50;;;;;;;4.65;2.25;;;2.50;99.90;;;;;;5100748;28;20039;-69
2023/03/10 04:06:30;;;;;;;2.22;1.80;;;2.50;99.90;;;;;;5066904;29;20052;-72
2023/03/10 04:09:02;;;;;;;3.38;1.60;;;2.40;99.90;;;;;;5062572;29;20047;-70
2023/03/10 04:11:36;;;;;;;2.88;1.67;;;2.40;99.90;;;;;;5078050;29;20287;-70
2023/03/10 04:14:11;;;;;;;4.40;2.05;;;2.30;99.90;;;;;;5070470;29;20055;-70
2023/03/10 04:16:44;;;;;;;6.07;1.80;;;2.30;99.90;;;;;;5092485;29;20236;-71
2023/03/10 04:19:18;;;;;;;2.38;1.67;;;2.20;99.90;;;;;;5079591;29;20085;-69
2023/03/10 04:21:53;;;;;;;4.55;2.22;;;2.20;99.90;;;;;;5076097;29;20498;-71
2023/03/10 04:24:24;;;;;;;;;;;2.10;99.90;;;;;;5093520;29;20706;-70
2023/03/10 04:26:55;;;;;;;3.72;3.05;;;2.00;99.90;;;;;;5087093;29;19910;-70
2023/03/10 04:29:27;;;;;;;2.78;1.50;;;2.00;99.90;;;;;;5113025;28;20045;-70
2023/03/10 04:31:58;;;;;;;3.58;1.75;;;2.00;99.90;;;;;;5094779;29;20049;-70
2023/03/10 04:34:30;;;;;;;4.07;2.03;;;2.00;99.90;;;;;;5097588;29;20066;-70
2023/03/10 04:37:04;;;;;;;3.63;1.75;;;2.00;99.90;;;;;;5081335;29;20062;-70
2023/03/10 04:39:40;;;;;;;1.85;1.63;;;2.00;99.90;;;;;;5097911;29;20031;-70
2023/03/10 04:42:18;;;;;;;3.83;1.83;;;2.10;99.90;;;;;;5097835;29;20051;-70
2023/03/10 04:44:51;;;;;;;2.58;1.95;;;2.20;99.90;;;;;;5098550;29;20047;-70
2023/03/10 04:47:25;;;;;;;4.43;1.52;;;2.10;99.90;;;;;;5080052;29;20047;-70
2023/03/10 04:49:57;;;;;;;2.63;1.60;;;2.10;99.90;;;;;;5115015;29;20341;-70
2023/03/10 04:52:28;;;;;;;9.70;1.52;;;2.10;99.90;;;;;;5081579;29;20061;-70
2023/03/10 04:55:06;;;;;;;3.80;1.40;;;2.00;99.90;;;;;;5081557;29;20057;-70
2023/03/10 04:57:40;;;;;;;4.22;1.52;;;1.90;99.90;;;;;;5076593;29;20035;-70
2023/03/10 05:00:12;;;;;;;4.30;1.63;;;1.80;99.90;;;;;;5075061;29;20102;-71
2023/03/10 05:02:44;;;;;;;3.80;1.77;;;1.70;99.90;;;;;;5094674;28;20043;-71
2023/03/10 05:05:16;;;;;;;7.05;1.98;;;1.60;99.90;;;;;;5076291;29;20051;-70
2023/03/10 05:07:50;;;;;;;4.22;2.03;;;1.60;99.90;;;;;;5080728;29;20077;-70
2023/03/10 05:10:21;;;;;;;4.45;2.13;;;1.60;99.90;;;;;;5097744;29;20373;-71
2023/03/10 05:12:56;;;;;;;6.75;2.40;;;1.60;99.90;;;;;;5098536;28;20031;-71
2023/03/10 05:15:33;;;;;;;3.30;1.98;;;1.60;99.90;;;;;;5114969;28;20050;-70
2023/03/10 05:18:09;;;;;;;2.50;2.15;;;1.60;99.90;;;;;;5100420;28;20038;-71
2023/03/10 05:20:40;;;;;;;2.92;2.00;;;1.60;99.90;;;;;;5100645;28;20227;-70
2023/03/10 05:23:12;;;;;;;3.83;2.08;;;1.70;99.90;;;;;;5100306;28;20041;-70
2023/03/10 05:25:43;;;;;;;9.85;2.20;;;1.70;99.90;;;;;;5098798;28;20046;-70
2023/03/10 05:28:24;;;;;;;5.20;2.17;;;1.80;99.90;;;;;;5115021;28;20403;-71
2023/03/10 05:30:56;;;;;;;2.88;1.90;;;1.80;99.90;;;;;;5092762;28;20043;-71
2023/03/10 05:33:27;;;;;;;7.82;2.20;;;1.80;99.90;;;;;;5098832;28;20054;-70
2023/03/10 05:36:06;;;;;;;3.70;2.35;;;1.90;99.90;;;;;;5104955;28;20332;-71
2023/03/10 05:38:37;;;;;;;7.70;2.33;;;2.00;99.90;;;;;;5083382;28;20035;-71
2023/03/10 05:41:11;;;;;;;4.03;2.90;;;2.10;99.90;;;;;;5082534;28;20047;-71
2023/03/10 05:43:45;;;;;;;6.55;2.80;;;2.20;99.90;;;;;;5080095;28;20045;-70
2023/03/10 05:46:16;;;;;;;5.28;3.40;;;2.30;99.90;;;;;;5091931;29;20478;-71
2023/03/10 05:48:48;;;;;;;7.50;3.28;;;2.50;99.90;;;;;;5089507;28;20030;-71
2023/03/10 05:51:21;;;;;;;5.03;3.35;;;2.70;99.90;;;;;;5080750;28;20066;-70
2023/03/10 05:53:53;;;;;;;6.90;3.57;;;2.90;99.90;;;;;;5108107;29;20101;-70
2023/03/10 05:56:24;;;;;;;4.72;2.83;;;3.00;99.90;;;;;;5095487;28;20042;-70
2023/03/10 05:58:56;;;;;;;8.00;2.47;;;3.20;99.90;;;;;;5098396;28;20034;-70
2023/03/10 06:01:30;;;;;;;3.83;2.30;;;3.30;99.90;;;;;;5092923;28;20058;-70
2023/03/10 06:04:04;;;;;;;3.15;2.15;;;3.30;99.90;;;;;;5078085;29;20049;-71
2023/03/10 06:06:36;;;;;;;4.38;2.50;;;3.40;99.90;;;;;;5065676;28;20061;-71
2023/03/10 06:09:07;;;;;;;6.93;2.80;;;3.50;99.90;;;;;;5109838;29;20050;-71
2023/03/10 06:11:40;;;;;;;7.90;3.33;;;3.60;99.90;;;;;;5064621;29;20046;-71
2023/03/10 06:14:12;;;;;;;6.30;2.55;;;3.60;99.90;;;;;;5068382;28;20050;-71
2023/03/10 06:16:50;;;;;;;2.90;2.33;;;3.60;99.90;;;;;;5079148;29;20489;-71
2023/03/10 06:19:28;;;;;;;7.28;3.03;;;3.70;99.90;;;;;;5100276;28;20054;-71
2023/03/10 06:22:02;;;;;;;9.43;4.70;;;3.70;99.90;;;;;;5082995;28;20043;-71
2023/03/10 06:24:35;;;;;;;11.77;5.35;;;3.80;99.90;;;;;;5109842;28;20416;-71
2023/03/10 06:27:10;;;;;;;5.68;3.80;;;3.90;99.90;;;;;;5114429;28;20498;-71
2023/03/10 06:29:42;;;;;;;4.68;2.92;;;4.00;99.90;;;;;;5114666;28;20050;-71
2023/03/10 06:32:14;;;;;;;4.80;2.80;;;4.20;99.90;;;;;;5097739;28;20077;-71
2023/03/10 06:34:46;;;;;;;7.25;3.22;;;4.40;99.90;;;;;;5114660;28;20283;-71
2023/03/10 06:37:17;;;;;;;4.78;2.55;;;4.60;99.90;;;;;;5131960;28;20035;-71
2023/03/10 06:39:49;;;;;;;5.75;2.78;;;4.90;99.90;;;;;;5082007;28;20512;-71
2023/03/10 06:42:23;;;;;;;8.68;3.28;;;5.10;99.90;;;;;;5098643;28;20069;-71
2023/03/10 06:44:59;;;;;;;6.20;3.35;;;5.40;99.90;;;;;;5131322;28;20048;-72
2023/03/10 06:47:30;;;;;;;5.72;2.85;;;5.60;99.90;;;;;;5079483;28;20212;-71
2023/03/10 06:50:04;;;;;;;9.18;3.22;;;5.70;99.90;;;;;;5114832;28;20056;-71
2023/03/10 06:52:36;;;;;;;4.22;3.42;;;5.90;99.90;;;;;;5130175;28;20045;-71
2023/03/10 06:55:12;;;;;;;4.50;2.58;;;6.00;99.90;;;;;;5098808;28;20057;-71
2023/03/10 06:57:43;;;;;;;4.63;3.00;;;6.20;99.90;;;;;;5097638;28;20042;-71
2023/03/10 07:00:20;;;;;;;10.88;3.53;;;6.50;99.90;;;;;;5113622;28;20044;-71
2023/03/10 07:02:55;;;;;;;4.15;3.20;;;6.70;99.90;;;;;;5106487;28;20042;-71
2023/03/10 07:05:28;;;;;;;;;;;7.00;1.00;;;;;;5105928;28;20062;-71
2023/03/10 07:08:02;;;;;;;8.75;3.40;;;7.30;1.00;;;;;;5128185;28;20127;-71
2023/03/10 07:10:33;;;;;;;7.90;3.25;;;7.40;1.00;;;;;;5078615;28;20138;-71
2023/03/10 07:13:05;;;;;;;6.03;3.25;;;7.50;99.90;;;;;;5091615;28;20066;-71
2023/03/10 07:15:40;;;;;;;8.13;3.22;;;7.70;73.20;;;;;;5093479;28;20047;-71
2023/03/10 07:18:14;;;;;;;7.57;3.88;;;7.70;77.10;;;;;;5093718;28;20057;-71
2023/03/10 07:20:46;;;;;;;5.72;3.33;;;7.80;1.00;;;;;;5109519;28;20038;-71
2023/03/10 07:23:22;;;;;;;6.78;2.90;;;8.00;1.00;;;;;;5119059;28;20058;-71
2023/03/10 07:25:59;;;;;;;4.95;3.28;;;8.40;99.90;;;;;;5112386;28;20045;-71
2023/03/10 07:28:30;;;;;;;4.75;3.28;;;8.80;99.90;;;;;;5087209;28;20102;-71
2023/03/10 07:31:07;;;;;;;5.65;3.40;;;9.10;1.00;;;;;;5091668;28;20328;-71
2023/03/10 07:33:40;;;;;;;9.32;3.50;;;9.40;1.00;;;;;;5103141;28;20167;-71
2023/03/10 07:36:15;;;;;;;9.07;3.17;;;9.60;1.00;;;;;;5111618;28;20049;-71
2023/03/10 07:38:49;;;;;;;4.47;2.95;;;9.90;1.00;;;;;;5055082;28;20348;-71
2023/03/10 07:41:21;;;;;;;;;;;10.20;1.00;;;;;;5097634;28;20588;-71
2023/03/10 07:43:54;;;;;;;9.18;3.38;;;10.40;1.00;;;;;;5084548;28;19920;-71
2023/03/10 07:46:25;;;;;;;6.43;3.53;;;10.60;39.00;;;;;;5089372;29;20047;-70
2023/03/10 07:49:03;;;;;;;6.65;3.70;;;10.60;47.90;;;;;;5095180;28;20484;-71
2023/03/10 07:51:38;;;;;;;5.90;3.92;;;10.50;33.20;;;;;;5092449;29;20035;-71
2023/03/10 07:54:14;;;;;;;7.15;3.95;;;10.50;73.60;;;;;;5090335;28;20055;-71
2023/03/10 07:56:46;;;;;;;4.40;3.42;;;10.30;39.60;;;;;;5088631;29;20035;-71
2023/03/10 07:59:17;;;;;;;7.07;3.38;;;10.50;99.90;;;;;;5081823;29;20107;-71
2023/03/10 08:01:49;;;;;;;7.07;3.58;;;10.70;92.30;;;;;;5096768;28;20047;-71
2023/03/10 08:04:23;;;;;;;6.03;3.80;;;11.00;98.80;;;;;;5076333;28;20243;-71
2023/03/10 08:06:54;;;;;;;5.45;3.85;;;11.30;99.90;;;;;;5112191;28;20473;-70
2023/03/10 08:09:30;;;;;;;6.63;3.92;;;11.40;99.90;;;;;;5080374;29;20131;-70
2023/03/10 08:12:02;;;;;;;6.60;3.83;;;11.90;99.90;;;;;;5083110;28;20045;-70
2023/03/10 08:14:36;;;;;;;5.38;3.33;;;12.20;99.90;;;;;;5099723;28;20050;-70
2023/03/10 08:17:07;;;;;;;5.35;3.42;;;12.50;99.90;;;;;;5098084;28;20046;-70
2023/03/10 08:19:39;;;;;;;7.00;3.28;;;12.50;99.90;;;;;;5081818;28;20035;-71
2023/03/10 08:22:13;;;;;;;4.88;3.55;;;12.50;99.90;;;;;;5099972;28;20049;-70
2023/03/10 08:24:45;;;;;;;6.00;4.00;;;12.70;99.90;;;;;;5084376;28;20046;-70
2023/03/10 08:27:17;;;;;;;6.25;3.63;;;12.90;99.90;;;;;;5099606;28;20046;-70
2023/03/10 08:29:48;;;;;;;7.28;3.65;;;12.90;99.90;;;;;;5098063;28;20246;-71
2023/03/10 08:32:25;;;;;;;5.78;3.70;;;13.10;99.90;;;;;;5113624;28;20041;-70
2023/03/10 08:34:59;;;;;;;4.32;3.10;;;13.20;99.90;;;;;;5099863;28;20051;-70
2023/03/10 08:37:30;;;;;;;6.70;3.83;;;13.50;99.90;;;;;;5099697;28;20057;-70
2023/03/10 08:40:03;;;;;;;4.70;3.92;;;13.60;99.90;;;;;;5116350;28;20477;-70
2023/03/10 08:42:35;;;;;;;6.43;3.65;;;13.80;99.90;;;;;;5083330;28;20377;-70
2023/03/10 08:45:08;;;;;;;4.75;3.03;;;14.00;99.90;;;;;;5096982;28;20603;-70
2023/03/10 08:47:39;;;;;;;5.15;3.35;;;14.00;99.90;;;;;;5078815;29;20051;-70
2023/03/10 08:50:14;;;;;;;6.80;4.38;;;13.30;99.90;;;;;;5095710;29;20027;-70
2023/03/10 08:52:45;;;;;;;5.97;3.70;;;13.00;99.90;;;;;;5112734;29;20039;-70
2023/03/10 08:55:23;;;;;;;5.80;3.50;;;12.80;99.90;;;;;;5075334;29;20050;-70
2023/03/10 08:57:57;;;;;;;3.45;3.03;;;13.20;99.90;;;;;;5098985;28;20069;-70
2023/03/10 09:00:28;;;;;;;5.53;3.30;;;13.40;99.90;;;;;;5111483;28;20043;-70
2023/03/10 09:02:59;;;;;;;4.60;3.47;;;13.90;99.90;;;;;;5104270;28;20234;-70
2023/03/10 09:05:31;;;;;;;6.03;3.53;;;14.10;99.90;;;;;;5104329;28;20058;-71
2023/03/10 09:08:07;;;;;;;3.70;3.13;;;14.40;99.90;;;;;;5114972;28;20048;-70
2023/03/10 09:10:41;;;;;;;4.13;3.70;;;14.70;99.90;;;;;;5114131;28;20214;-71
2023/03/10 09:13:15;;;;;;;4.13;3.40;;;14.30;99.90;;;;;;5087594;29;20038;-70
2023/03/10 09:15:49;;;;;;;4.15;3.63;;;14.00;99.90;;;;;;5107421;28;20372;-70
2023/03/10 09:18:26;;;;;;;5.47;3.50;;;14.30;99.90;;;;;;5096436;28;20165;-70
2023/03/10 09:20:59;;;;;;;3.25;2.88;;;14.70;99.90;;;;;;5130141;28;20305;-70
2023/03/10 09:23:34;;;;;;;6.28;3.28;;;15.20;99.90;;;;;;5097761;28;20046;-70
2023/03/10 09:26:05;;;;;;;;;;;16.00;99.90;;;;;;5132242;28;20049;-70
2023/03/10 09:28:40;;;;;;;5.95;3.35;;;16.00;99.90;;;;;;5127084;28;20177;-70
2023/03/10 09:31:19;;;;;;;5.43;3.00;;;15.90;99.90;;;;;;5110507;28;20041;-70
2023/03/10 09:33:52;;;;;;;4.13;3.42;;;16.20;99.90;;;;;;5111012;28;20319;-70
2023/03/10 09:36:23;;;;;;;8.70;3.10;;;16.70;99.90;;;;;;5098260;28;20043;-69
2023/03/10 09:38:57;;;;;;;8.85;3.28;;;17.10;99.90;;;;;;5112968;28;20046;-69
2023/03/10 09:41:40;;;;;;;5.55;3.70;;;17.40;99.90;;;;;;5093355;29;20038;-69
2023/03/10 09:44:33;;;;;;;9.73;3.60;;;17.40;99.90;;;;;;5111712;29;20038;-71
2023/03/10 09:47:27;;;;;;;6.93;3.53;;;16.90;99.90;;;;;;5075676;29;20225;-71
2023/03/10 09:50:34;;;;;;;6.35;3.38;;;17.00;99.90;;;;;;5079218;29;20039;-69
2023/03/10 09:53:56;;;;;;;7.28;3.60;;;17.30;99.90;;;;;;5098567;28;20035;-69
2023/03/10 09:56:33;;;;;;;4.97;3.50;;;17.70;99.90;;;;;;5041399;29;20390;-69
2023/03/10 09:59:38;;;;;;;5.05;3.70;;;18.10;99.90;;;;;;5126417;28;20334;-69
2023/03/10 10:02:36;;;;;;;5.55;3.22;;;18.40;99.90;;;;;;5131902;28;20054;-70
2023/03/10 10:05:20;;;;;;;5.78;3.15;;;18.40;99.90;;;;;;5102654;28;20047;-69
2023/03/10 10:07:59;;;;;;;4.43;3.10;;;18.50;99.90;;;;;;5097570;28;20038;-69
2023/03/10 10:10:41;;;;;;;4.53;3.20;;;19.10;99.90;;;;;;5113537;28;20587;-69
2023/03/10 10:13:17;;;;;;;3.22;2.65;;;19.70;99.90;;;;;;5097502;28;20329;-69
2023/03/10 10:16:04;;;;;;;5.30;2.20;;;19.90;99.90;;;;;;5110469;28;20323;-69
2023/03/10 10:18:46;;;;;;;4.43;3.33;;;20.40;99.90;;;;;;5094856;28;20033;-70
2023/03/10 10:21:32;;;;;;;5.03;3.10;;;20.80;99.90;;;;;;5087042;28;20053;-69
2023/03/10 10:24:07;;;;;;;4.03;2.67;;;20.80;99.90;;;;;;5128130;28;20039;-69
2023/03/10 10:26:41;;;;;;;2.13;1.55;;;20.60;99.90;;;;;;5112760;28;20046;-69
2023/03/10 10:29:27;;;;;;;3.22;2.55;;;20.40;99.90;;;;;;5112771;28;20161;-70
2023/03/10 10:32:14;;;;;;;3.25;2.47;;;20.80;99.90;;;;;;5110246;28;20426;-69
2023/03/10 10:34:48;;;;;;;3.38;2.42;;;20.40;99.90;;;;;;5129463;28;20038;-71
2023/03/10 10:37:34;;;;;;;1.52;1.42;;;20.90;99.90;;;;;;5093410;29;20043;-69
2023/03/10 10:40:25;;;;;;;1.60;1.50;;;20.70;99.90;;;;;;5077250;29;20035;-69
2023/03/10 10:42:59;;;;;;;2.25;1.30;;;19.60;99.90;;;;;;5109227;29;20352;-69
2023/03/10 10:45:36;;;;;;;3.38;1.67;;;19.40;99.90;;;;;;5084482;28;20215;-70
2023/03/10 10:48:41;;;;;;;2.38;1.60;;;18.90;99.90;;;;;;5061559;29;20301;-68
2023/03/10 10:51:27;;;;;;;1.88;1.75;;;19.20;99.90;;;;;;5077627;29;20223;-69
2023/03/10 10:54:18;;;;;;;1.77;1.67;;;20.40;99.90;;;;;;5083935;28;20038;-69
2023/03/10 10:56:59;;;;;;;4.63;1.33;;;20.80;99.90;;;;;;5092451;29;20239;-68
2023/03/10 10:59:34;;;;;;;2.42;1.30;;;21.20;99.90;;;;;;5107035;28;20296;-69
2023/03/10 11:02:31;;;;;;;2.25;1.23;;;21.50;99.90;;;;;;5083385;28;20400;-69
2023/03/10 11:05:11;;;;;;;3.78;1.45;;;21.40;99.90;;;;;;5079418;29;20044;-69
2023/03/10 11:07:49;;;;;;;1.65;1.13;;;20.90;99.90;;;;;;5093275;29;20404;-70
2023/03/10 11:10:27;;;;;;;1.27;1.08;;;21.40;99.80;;;;;;5070927;28;20231;-70
2023/03/10 11:13:22;;;;;;;2.05;1.40;;;21.30;99.00;;;;;;5066498;28;20122;-68
2023/03/10 11:16:35;;;;;;;2.22;1.42;;;21.30;99.80;;;;;;5091057;28;20046;-69
2023/03/10 11:19:48;;;;;;;1.08;1.00;;;21.30;99.40;;;;;;5079415;28;20370;-68
2023/03/10 11:22:50;;;;;;;1.13;1.08;;;20.50;99.40;;;;;;5080440;28;20386;-69
2023/03/10 11:25:51;;;;;;;2.25;1.25;;;20.10;99.90;;;;;;5093075;29;20278;-68
2023/03/10 11:28:41;;;;;;;1.83;1.35;;;20.00;99.90;;;;;;5103739;28;20035;-68
2023/03/10 11:31:40;;;;;;;1.58;1.17;;;20.50;99.90;;;;;;5126497;28;20457;-69
2023/03/10 11:34:24;;;;;;;2.05;1.25;;;21.10;99.50;;;;;;5128113;28;20312;-69
2023/03/10 11:37:28;;;;;;;2.22;1.48;;;22.00;99.20;;;;;;5074967;29;20201;-68
2023/03/10 11:40:29;;;;;;;2.05;1.77;;;21.20;99.10;;;;;;5110416;28;20339;-68
2023/03/10 11:43:05;;;;;;;1.40;1.30;;;20.40;99.90;;;;;;5098217;28;20045;-68
2023/03/10 11:45:56;;;;;;;1.30;1.20;;;20.10;99.90;;;;;;5097215;28;20049;-68
2023/03/10 11:48:56;;;;;;;2.10;1.45;;;19.80;99.90;;;;;;5114847;28;20038;-68
2023/03/10 11:51:47;;;;;;;2.78;1.65;;;19.10;99.90;;;;;;5104480;28;20287;-68
2023/03/10 11:54:39;;;;;;;1.83;1.15;;;18.80;99.90;;;;;;5096479;29;20043;-68
2023/03/10 11:57:22;;;;;;;1.63;1.38;;;19.00;99.90;;;;;;5089616;29;20253;-68
2023/03/10 12:00:05;;;;;;;2.22;1.30;;;19.40;99.90;;;;;;5095397;29;20035;-72
2023/03/10 12:02:43;;;;;;;1.88;1.75;;;20.10;99.90;;;;;;5126009;28;20508;-70
2023/03/10 12:05:45;;;;;;;4.00;1.83;;;20.10;99.90;;;;;;5105844;28;20046;-68
2023/03/10 12:08:21;;;;;;;1.92;1.30;;;20.20;99.90;;;;;;5126469;28;20043;-68
2023/03/10 12:10:54;;;;;;;1.23;1.13;;;20.70;99.90;;;;;;5074949;29;20475;-68
2023/03/10 12:13:43;;;;;;;2.70;1.38;;;21.20;99.90;;;;;;5102032;28;20201;-69
2023/03/10 12:16:29;;;;;;;3.53;1.38;;;21.00;99.90;;;;;;5081164;28;20039;-69
2023/03/10 12:19:03;;;;;;;2.80;1.42;;;21.20;99.90;;;;;;5083071;28;20038;-68
2023/03/10 12:21:35;;;;;;;2.28;1.45;;;21.20;99.90;;;;;;5092002;29;20231;-69
2023/03/10 12:24:44;;;;;;;2.03;1.30;;;22.70;99.90;;;;;;5102209;28;20383;-69
2023/03/10 12:27:15;;;;;;;2.85;1.50;;;22.10;98.80;;;;;;5089766;28;20568;-70
2023/03/10 12:29:47;;;;;;;1.80;1.65;;;20.30;99.90;;;;;;5129745;28;20045;-70
2023/03/10 12:32:47;;;;;;;3.80;1.45;;;19.20;99.90;;;;;;5093071;28;20065;-70
2023/03/10 12:35:34;;;;;;;3.22;1.70;;;18.60;99.90;;;;;;5108253;28;20061;-69
2023/03/10 12:38:41;;;;;;;2.33;1.50;;;18.20;99.90;;;;;;5099931;28;20050;-69
2023/03/10 12:41:41;;;;;;;2.13;1.58;;;17.30;99.90;;;;;;5111133;29;20255;-68
2023/03/10 12:44:35;;;;;;;1.70;1.60;;;17.40;99.90;;;;;;5079090;29;20074;-68
2023/03/10 12:47:29;;;;;;;1.70;1.40;;;17.60;99.90;;;;;;5110532;28;20042;-71
2023/03/10 12:50:25;;;;;;;3.20;1.60;;;17.50;99.90;;;;;;5112494;28;20604;-68
2023/03/10 12:53:32;;;;;;;2.97;1.65;;;17.20;99.90;;;;;;5131173;28;20046;-70
2023/03/10 12:56:28;;;;;;;2.85;1.70;;;17.30;99.90;;;;;;5094272;29;20047;-71
2023/03/10 12:59:29;;;;;;;4.85;1.60;;;18.60;99.90;;;;;;5117173;28;20034;-68
2023/03/10 13:02:05;;;;;;;1.30;1.20;;;19.20;99.90;;;;;;5113151;28;20054;-67
2023/03/10 13:04:43;;;;;;;2.92;1.67;;;19.20;99.90;;;;;;5068271;28;20059;-70
2023/03/10 13:07:19;;;;;;;2.67;1.60;;;19.20;99.90;;;;;;5059963;29;20058;-67
2023/03/10 13:09:51;;;;;;;1.88;1.70;;;20.10;99.90;;;;;;5064201;28;20050;-71
2023/03/10 13:12:46;;;;;;;1.50;1.15;;;20.90;99.90;;;;;;5115302;28;20053;-69
2023/03/10 13:15:27;;;;;;;1.45;1.10;;;22.70;99.90;;;;;;5111698;28;20046;-67
2023/03/10 13:18:22;;;;;;;1.77;1.30;;;22.90;98.60;;;;;;5097828;28;20181;-68
2023/03/10 13:21:00;;;;;;;1.75;1.42;;;21.10;99.50;;;;;;5100386;28;20026;-68
2023/03/10 13:23:37;;;;;;;1.33;1.20;;;20.70;99.90;;;;;;5096157;28;20052;-68
2023/03/10 13:26:21;;;;;;;3.10;1.20;;;20.40;99.90;;;;;;5098559;28;20580;-68
2023/03/10 13:29:03;;;;;;;1.70;1.40;;;20.20;99.90;;;;;;5108039;28;20043;-68
2023/03/10 13:31:37;;;;;;;1.55;1.35;;;20.00;99.90;;;;;;5074266;28;20285;-69
2023/03/10 13:34:19;;;;;;;1.85;1.02;;;20.10;99.90;;;;;;5112151;29;20062;-71
2023/03/10 13:36:53;;;;;;;4.22;1.52;;;19.80;99.90;;;;;;5112152;28;20114;-68
2023/03/10 13:39:26;;;;;;;5.75;1.33;;;18.70;99.90;;;;;;5095530;28;20373;-67
2023/03/10 13:42:00;;;;;;;1.50;1.40;;;18.00;99.90;;;;;;5112802;28;20530;-69
2023/03/10 13:44:43;;;;;;;1.83;1.23;;;17.90;99.90;;;;;;5108855;28;20663;-68
2023/03/10 13:47:39;;;;;;;1.40;1.13;;;17.70;99.90;;;;;;5081466;28;20291;-68
2023/03/10 13:50:17;;;;;;;1.52;1.17;;;18.00;99.90;;;;;;5113549;28;20295;-68